map of ABJ home
ABJ - Airport
Location
City:  Abidjan, Lagunes, Côte d'Ivoire (Ivory Coast)
Name:Félix Houphouët-Boigny International Airport
Old (Alt.):Port Bouet Airport
ICAO:DIAP
IATA:ABJ

Details
Type:Airport (Aerodrome, Airfield)
Use:Public/Civil, International (customs port of entry)
Latitude:5°15'41"N (5.261386)
Longitude:3°55'35"W (-3.926293)
Datum:WGS 1984
Elevation:21 ft (6 m)
Variation:4.57°W (WMM2015 magnetic declination)
0.11° annual change
Runways:1
Longest:9843 × 164 ft (3000 × 50 m), paved

Time
Time Zone:UTC+0
Local Time:

Weather
METAR:DIAP 162230Z 21008KT 9999 FEW012 29/26 Q1012 NOSIG
TAF:DIAP 161700Z 1618/1724 21010KT 8000 SCT012
TEMPO 1620/1624 BKN012 PROB30
TEMPO 1716/1722 4000 RA BKN012

Related Locations
Nearby:
Farthest:AIS: 12243 mi / 19702 km
Arorae Island, G, KI

Find:

   beyond  
but within

Other Information
Maps:
NOTAMs:
Links:
Sources:

  
  • flag of Côte d'Ivoire (Ivory Coast)
  

Sectional Chart

Flight Planning
at skyvector.com

Satellite Image

Google Maps Satellite view

 

Copyright © 2004-2019 Karl L. Swartz. All rights reserved.
The Great Circle Mapper name and logo are trademarks of the Great Circle Mapper.
All other trademarks mentioned herein belong to their respective owners.
Please see credits for attibutions and further copyright information.

  Follow gcmap on Facebook Follow gcmap on Twitter Follow gcmap on Google+ GCmap on LinkedIn

hCard Microformat

Geo Microformat